createdAt,value
2018-03-19T00:01:27.696Z,11.25
2018-03-19T00:03:55.846Z,8.70
2018-03-19T00:06:23.988Z,16.37
2018-03-19T00:08:52.115Z,13.85
2018-03-19T00:11:20.226Z,10.13
2018-03-19T00:13:48.378Z,14.03
2018-03-19T00:16:16.565Z,11.68
2018-03-19T00:18:44.705Z,16.17
2018-03-19T00:21:12.855Z,25.40
2018-03-19T00:23:40.999Z,13.20
2018-03-19T00:26:09.156Z,12.53
2018-03-19T00:28:37.271Z,11.93
2018-03-19T00:31:05.476Z,11.18
2018-03-19T00:33:33.696Z,16.73
2018-03-19T00:36:01.878Z,14.50
2018-03-19T00:38:30.025Z,17.97
2018-03-19T00:40:58.261Z,10.75
2018-03-19T00:43:26.482Z,16.87
2018-03-19T00:45:54.643Z,11.57
2018-03-19T00:48:22.784Z,12.30
2018-03-19T00:50:51.783Z,10.83
2018-03-19T00:53:19.966Z,12.97
2018-03-19T00:55:48.112Z,15.10
2018-03-19T00:58:16.260Z,14.27
2018-03-19T01:00:44.400Z,13.43
2018-03-19T01:03:12.558Z,12.70
2018-03-19T01:05:40.718Z,12.07
2018-03-19T01:08:08.857Z,15.03
2018-03-19T01:10:37.023Z,17.87
2018-03-19T01:13:05.139Z,16.43
2018-03-19T01:15:33.297Z,12.90
2018-03-19T01:18:09.324Z,15.50
2018-03-19T01:20:37.477Z,12.33
2018-03-19T01:23:05.632Z,18.53
2018-03-19T01:25:33.803Z,15.77
2018-03-19T01:28:01.961Z,13.13
2018-03-19T01:30:30.107Z,13.05
2018-03-19T01:32:58.246Z,16.90
2018-03-19T01:35:26.439Z,12.82
2018-03-19T01:37:54.557Z,22.23
2018-03-19T01:40:22.721Z,16.57
2018-03-19T01:42:50.838Z,10.80
2018-03-19T01:45:18.988Z,11.25
2018-03-19T01:47:47.122Z,10.97
2018-03-19T01:50:15.291Z,9.47
2018-03-19T01:52:49.562Z,13.13
2018-03-19T01:55:17.735Z,14.70
2018-03-19T01:57:45.870Z,14.63
2018-03-19T02:00:14.108Z,10.35
2018-03-19T02:02:42.239Z,10.93
2018-03-19T02:05:10.787Z,13.30
2018-03-19T02:07:38.933Z,17.23
2018-03-19T02:10:07.096Z,31.92
2018-03-19T02:12:35.238Z,9.63
2018-03-19T02:15:03.377Z,11.70
2018-03-19T02:17:31.512Z,9.67
2018-03-19T02:19:59.632Z,11.30
2018-03-19T02:22:27.798Z,14.47
2018-03-19T02:24:56.080Z,11.90
2018-03-19T02:27:24.262Z,14.82
2018-03-19T02:29:52.390Z,17.48
2018-03-19T02:32:20.524Z,17.00
2018-03-19T02:34:48.685Z,13.10
2018-03-19T02:37:16.834Z,18.12
2018-03-19T02:39:44.992Z,15.10
2018-03-19T02:42:13.166Z,12.87
2018-03-19T02:44:41.367Z,13.10
2018-03-19T02:47:09.996Z,13.68
2018-03-19T02:49:38.131Z,19.40
2018-03-19T02:52:06.281Z,13.63
2018-03-19T02:54:34.427Z,11.13
2018-03-19T02:57:02.597Z,11.80
2018-03-19T02:59:30.756Z,10.93
2018-03-19T03:01:58.898Z,15.02
2018-03-19T03:04:27.307Z,19.17
2018-03-19T03:06:55.475Z,14.43
2018-03-19T03:09:23.629Z,24.58
2018-03-19T03:11:51.776Z,14.57
2018-03-19T03:14:19.924Z,12.40
2018-03-19T03:16:48.107Z,15.80
2018-03-19T03:19:16.314Z,17.60
2018-03-19T03:21:44.432Z,12.05
2018-03-19T03:24:12.605Z,16.83
2018-03-19T03:26:40.749Z,13.83
2018-03-19T03:29:08.934Z,18.70
2018-03-19T03:31:37.109Z,12.43
2018-03-19T03:34:05.249Z,10.43
2018-03-19T03:36:34.070Z,16.42
2018-03-19T03:39:02.207Z,13.57
2018-03-19T03:41:30.397Z,19.33
2018-03-19T03:43:58.573Z,17.40
2018-03-19T03:46:26.718Z,17.83
2018-03-19T03:48:54.849Z,15.65
2018-03-19T03:51:23.012Z,17.25
2018-03-19T03:53:51.176Z,12.47
2018-03-19T03:56:19.360Z,16.93
2018-03-19T03:58:47.492Z,14.07
2018-03-19T04:01:15.614Z,26.17
2018-03-19T04:03:43.799Z,19.23
2018-03-19T04:06:11.962Z,18.83
2018-03-19T04:08:40.104Z,21.13
2018-03-19T04:11:08.253Z,22.87
2018-03-19T04:13:36.408Z,25.70
2018-03-19T04:16:04.552Z,29.73
2018-03-19T04:18:32.690Z,23.43
2018-03-19T04:21:00.827Z,17.15
2018-03-19T04:23:29.003Z,17.43
2018-03-19T04:25:57.164Z,25.33
2018-03-19T04:28:25.304Z,17.20
2018-03-19T04:30:53.511Z,17.43
2018-03-19T04:33:21.656Z,16.27
2018-03-19T04:35:49.818Z,15.43
2018-03-19T04:38:17.950Z,17.63
2018-03-19T04:40:46.081Z,15.33
2018-03-19T04:43:14.214Z,15.70
2018-03-19T04:45:42.346Z,13.30
2018-03-19T04:48:10.514Z,25.67
2018-03-19T04:50:38.676Z,49.33
2018-03-19T04:53:06.896Z,20.50
2018-03-19T04:55:35.084Z,22.67
2018-03-19T04:58:03.244Z,13.73
2018-03-19T05:00:31.376Z,18.02
2018-03-19T05:02:59.554Z,15.75
2018-03-19T05:05:27.710Z,19.77
2018-03-19T05:07:56.177Z,12.20
2018-03-19T05:10:24.367Z,13.90
2018-03-19T05:12:52.539Z,17.43
2018-03-19T05:15:20.692Z,18.15
2018-03-19T05:17:48.837Z,16.53
2018-03-19T05:20:16.992Z,20.58
2018-03-19T05:22:45.150Z,17.80
2018-03-19T05:25:13.324Z,18.60
2018-03-19T05:27:41.469Z,21.20
2018-03-19T05:30:09.606Z,15.93
2018-03-19T05:32:37.753Z,18.97
2018-03-19T05:35:05.993Z,15.83
2018-03-19T05:37:34.203Z,17.93
2018-03-19T05:40:02.333Z,14.37
2018-03-19T05:42:30.470Z,20.73
2018-03-19T05:44:58.622Z,16.20
2018-03-19T05:47:26.781Z,11.93
2018-03-19T05:49:55.019Z,17.20
2018-03-19T05:52:23.133Z,13.30
2018-03-19T05:54:51.371Z,19.85
2018-03-19T05:57:19.500Z,16.80
2018-03-19T05:59:47.662Z,15.65
2018-03-19T06:02:15.798Z,14.35
2018-03-19T06:04:43.942Z,14.30
2018-03-19T06:07:12.114Z,24.27
2018-03-19T06:09:40.260Z,17.40
2018-03-19T06:12:08.404Z,17.47
2018-03-19T06:14:36.547Z,17.80
2018-03-19T06:17:04.684Z,22.10
2018-03-19T06:19:32.831Z,26.48
2018-03-19T06:22:01.125Z,18.50
2018-03-19T06:24:29.261Z,17.73
2018-03-19T06:26:57.396Z,18.45
2018-03-19T06:29:25.599Z,21.60
2018-03-19T06:31:53.731Z,15.37
2018-03-19T06:34:21.868Z,19.40
2018-03-19T06:36:50.002Z,19.00
2018-03-19T06:39:18.166Z,16.75
2018-03-19T06:41:46.327Z,14.70
2018-03-19T06:44:14.485Z,20.15
2018-03-19T06:46:42.715Z,26.80
2018-03-19T06:49:10.899Z,21.10
2018-03-19T06:51:39.053Z,16.80
2018-03-19T06:54:07.467Z,17.83
2018-03-19T06:56:35.953Z,14.77
2018-03-19T06:59:04.134Z,23.50
2018-03-19T07:01:32.261Z,19.98
2018-03-19T07:04:00.408Z,21.20
2018-03-19T07:06:28.607Z,16.50
2018-03-19T07:08:56.717Z,15.07
2018-03-19T07:11:24.897Z,13.38
2018-03-19T07:13:53.157Z,19.30
2018-03-19T07:16:21.296Z,17.60
2018-03-19T07:18:49.439Z,15.80
2018-03-19T07:21:17.584Z,21.60
2018-03-19T07:23:45.714Z,14.93
2018-03-19T07:26:13.874Z,23.10
2018-03-19T07:28:42.017Z,20.33
2018-03-19T07:31:10.313Z,19.13
2018-03-19T07:33:38.897Z,15.30
2018-03-19T07:36:07.051Z,23.77
2018-03-19T07:38:35.201Z,14.53
2018-03-19T07:41:03.408Z,20.87
2018-03-19T07:43:31.560Z,20.27
2018-03-19T07:45:59.708Z,15.97
2018-03-19T07:48:29.524Z,15.82
2018-03-19T07:50:57.680Z,18.65
2018-03-19T07:53:25.818Z,15.98
2018-03-19T07:55:54.018Z,18.10
2018-03-19T07:58:22.139Z,17.87
2018-03-19T08:00:50.385Z,15.85
2018-03-19T08:03:18.519Z,16.73
2018-03-19T08:05:46.688Z,19.30
2018-03-19T08:08:14.827Z,18.17
2018-03-19T08:10:42.985Z,16.53
2018-03-19T08:13:11.136Z,18.53
2018-03-19T08:15:39.280Z,16.83
2018-03-19T08:18:07.584Z,20.33
2018-03-19T08:20:35.731Z,17.00
2018-03-19T08:23:03.877Z,16.13
2018-03-19T08:25:32.060Z,23.50
2018-03-19T08:28:00.191Z,19.53
2018-03-19T08:30:28.378Z,24.77
2018-03-19T08:32:56.503Z,19.17
2018-03-19T08:35:24.645Z,18.63
2018-03-19T08:37:52.953Z,24.53
2018-03-19T08:40:21.103Z,18.73
2018-03-19T08:42:49.250Z,20.70
2018-03-19T08:45:17.415Z,20.12
2018-03-19T08:47:45.563Z,17.57
2018-03-19T08:50:13.768Z,21.03
2018-03-19T08:52:41.905Z,32.20
2018-03-19T08:55:10.169Z,18.67
2018-03-19T08:57:38.383Z,19.00
2018-03-19T09:00:06.533Z,18.20
2018-03-19T09:02:34.700Z,20.48
2018-03-19T09:05:02.853Z,20.00
2018-03-19T09:07:31.012Z,20.33
2018-03-19T09:09:59.179Z,25.10
2018-03-19T09:12:27.327Z,19.93
2018-03-19T09:14:55.497Z,29.07
2018-03-19T09:17:23.646Z,15.53
2018-03-19T09:19:51.835Z,17.33
2018-03-19T09:22:20.000Z,19.67
2018-03-19T09:24:48.137Z,24.43
2018-03-19T09:27:16.292Z,25.60
2018-03-19T09:29:44.463Z,24.77
2018-03-19T09:32:12.616Z,25.20
2018-03-19T09:34:40.830Z,23.60
2018-03-19T09:37:08.971Z,17.37
2018-03-19T09:39:37.132Z,21.40
2018-03-19T09:42:05.267Z,17.93
2018-03-19T09:44:33.487Z,22.17
2018-03-19T09:47:01.665Z,21.97
2018-03-19T09:49:29.810Z,18.23
2018-03-19T09:51:57.931Z,19.50
2018-03-19T09:54:26.068Z,26.20
2018-03-19T09:56:54.222Z,22.20
2018-03-19T09:59:22.374Z,19.40
2018-03-19T10:01:50.516Z,24.42
2018-03-19T10:04:18.648Z,21.43
2018-03-19T10:06:46.813Z,18.80
2018-03-19T10:09:14.993Z,20.65
2018-03-19T10:11:43.373Z,19.87
2018-03-19T10:14:11.533Z,18.23
2018-03-19T10:16:39.661Z,25.40
2018-03-19T10:19:07.862Z,23.10
2018-03-19T10:21:36.072Z,33.13
2018-03-19T10:24:04.233Z,22.65
2018-03-19T10:26:32.422Z,25.00
2018-03-19T10:29:00.565Z,18.90
2018-03-19T10:31:28.761Z,19.80
2018-03-19T10:33:56.907Z,20.23
2018-03-19T10:36:25.049Z,22.37
2018-03-19T10:38:53.173Z,23.20
2018-03-19T10:41:21.334Z,15.63
2018-03-19T10:43:49.475Z,21.27
2018-03-19T10:46:18.185Z,22.07
2018-03-19T10:48:46.376Z,22.37
2018-03-19T10:51:14.550Z,17.25
2018-03-19T10:53:42.740Z,30.40
2018-03-19T10:56:10.881Z,27.40
2018-03-19T10:58:39.137Z,22.10
2018-03-19T11:01:13.062Z,21.80
2018-03-19T11:03:41.206Z,17.03
2018-03-19T11:06:15.028Z,21.10
2018-03-19T11:08:47.148Z,19.17
2018-03-19T11:11:15.308Z,17.67
2018-03-19T11:13:44.325Z,20.90
2018-03-19T11:16:12.473Z,19.63
2018-03-19T11:18:40.619Z,14.90
2018-03-19T11:21:08.771Z,24.20
2018-03-19T11:23:36.934Z,34.57
2018-03-19T11:26:05.097Z,27.10
2018-03-19T11:28:33.266Z,30.95
2018-03-19T11:31:01.356Z,24.17
2018-03-19T11:33:29.522Z,20.02
2018-03-19T11:35:57.678Z,28.40
2018-03-19T11:38:25.832Z,22.67
2018-03-19T11:40:53.975Z,23.30
2018-03-19T11:43:22.105Z,26.37
2018-03-19T11:45:50.254Z,24.93
2018-03-19T11:48:18.453Z,29.20
2018-03-19T11:50:46.612Z,27.60
2018-03-19T11:53:14.758Z,21.40
2018-03-19T11:55:42.904Z,22.50
2018-03-19T11:58:11.052Z,23.67
2018-03-19T12:00:39.174Z,26.08
2018-03-19T12:03:07.388Z,26.33
2018-03-19T12:05:35.538Z,23.70
2018-03-19T12:08:03.661Z,26.13
2018-03-19T12:10:31.783Z,33.00
2018-03-19T12:12:59.933Z,25.07
2018-03-19T12:15:28.068Z,24.35
2018-03-19T12:17:56.202Z,21.00
2018-03-19T12:20:24.332Z,23.57
2018-03-19T12:22:52.476Z,22.23
2018-03-19T12:25:20.680Z,31.27
2018-03-19T12:27:48.842Z,32.23
2018-03-19T12:30:16.963Z,25.07
2018-03-19T12:32:45.097Z,26.77
2018-03-19T12:35:13.288Z,23.30
2018-03-19T12:37:42.407Z,22.30
2018-03-19T12:40:10.557Z,20.45
2018-03-19T12:42:38.892Z,21.13
2018-03-19T12:45:07.066Z,20.17
2018-03-19T12:47:35.176Z,30.70
2018-03-19T12:50:03.312Z,29.03
2018-03-19T12:52:31.437Z,26.33
2018-03-19T12:54:59.578Z,19.97
2018-03-19T12:57:27.737Z,30.08
2018-03-19T12:59:55.910Z,24.73
2018-03-19T13:02:24.039Z,31.00
2018-03-19T13:04:52.336Z,24.30
2018-03-19T13:07:20.887Z,28.27
2018-03-19T13:09:49.019Z,26.35
2018-03-19T13:12:17.215Z,28.48
2018-03-19T13:14:45.364Z,26.67
2018-03-19T13:17:13.519Z,33.77
2018-03-19T13:19:41.748Z,24.30
2018-03-19T13:22:09.885Z,27.20
2018-03-19T13:24:38.055Z,22.43
2018-03-19T13:27:06.371Z,32.23
2018-03-19T13:29:34.499Z,23.15
2018-03-19T13:32:02.627Z,22.13
2018-03-19T13:34:30.843Z,23.75
2018-03-19T13:36:59.277Z,24.53
2018-03-19T13:39:27.421Z,28.67
2018-03-19T13:41:55.651Z,24.97
2018-03-19T13:44:23.800Z,29.98
2018-03-19T13:46:51.971Z,31.97
2018-03-19T13:49:20.156Z,23.85
2018-03-19T13:51:48.297Z,25.57
2018-03-19T13:54:16.439Z,22.90
2018-03-19T13:56:44.631Z,28.10
2018-03-19T13:59:12.817Z,26.83
2018-03-19T14:01:40.976Z,32.60
2018-03-19T14:04:09.135Z,33.40
2018-03-19T14:06:37.327Z,27.23
2018-03-19T14:09:06.363Z,26.00
2018-03-19T14:11:34.520Z,31.00
2018-03-19T14:14:02.783Z,29.10
2018-03-19T14:16:30.928Z,28.47
2018-03-19T14:18:59.065Z,30.23
2018-03-19T14:21:27.249Z,24.77
2018-03-19T14:23:55.419Z,25.83
2018-03-19T14:26:23.559Z,33.83
2018-03-19T14:28:51.743Z,30.37
2018-03-19T14:31:20.422Z,29.42
2018-03-19T14:33:48.654Z,35.80
2018-03-19T14:36:17.440Z,29.70
2018-03-19T14:38:45.733Z,30.70
2018-03-19T14:41:13.932Z,30.67
2018-03-19T14:43:42.048Z,25.30
2018-03-19T14:46:10.775Z,28.10
2018-03-19T14:48:39.095Z,33.57
2018-03-19T14:51:07.995Z,33.47
2018-03-19T14:53:36.148Z,50.93
2018-03-19T14:56:04.311Z,26.23
2018-03-19T14:58:32.458Z,26.10
2018-03-19T15:01:00.737Z,29.40
2018-03-19T15:03:28.945Z,27.60
2018-03-19T15:05:57.091Z,29.20
2018-03-19T15:08:25.245Z,39.27
2018-03-19T15:10:53.746Z,32.67
2018-03-19T15:13:21.920Z,32.67
2018-03-19T15:15:50.077Z,30.27
2018-03-19T15:18:18.264Z,33.43
2018-03-19T15:20:46.438Z,30.73
2018-03-19T15:23:14.592Z,28.10
2018-03-19T15:25:42.777Z,33.83
2018-03-19T15:28:10.906Z,24.33
2018-03-19T15:30:39.083Z,31.60
2018-03-19T15:33:07.331Z,29.90
2018-03-19T15:35:35.478Z,32.33
2018-03-19T15:38:03.623Z,32.20
2018-03-19T15:40:31.800Z,29.00
2018-03-19T15:43:00.900Z,35.40
2018-03-19T15:45:29.064Z,30.23
2018-03-19T15:47:57.244Z,25.70
2018-03-19T15:50:25.417Z,37.00
2018-03-19T15:52:53.541Z,30.80
2018-03-19T15:55:21.761Z,35.20
2018-03-19T15:57:50.021Z,34.23
2018-03-19T16:00:18.159Z,27.48
2018-03-19T16:02:46.335Z,31.98
2018-03-19T16:05:14.491Z,30.73
2018-03-19T16:07:42.627Z,36.10
2018-03-19T16:10:10.878Z,36.70
2018-03-19T16:12:39.062Z,33.67
2018-03-19T16:15:07.295Z,43.53
2018-03-19T16:17:35.451Z,38.57
2018-03-19T16:20:03.587Z,31.47
2018-03-19T16:22:31.717Z,40.27
2018-03-19T16:25:00.788Z,36.93
2018-03-19T16:27:28.987Z,39.37
2018-03-19T16:29:57.148Z,37.10
2018-03-19T16:32:25.304Z,35.23
2018-03-19T16:34:53.457Z,29.23
2018-03-19T16:37:21.596Z,41.10
2018-03-19T16:39:49.779Z,32.30
2018-03-19T16:42:17.931Z,32.53
2018-03-19T16:44:46.067Z,33.30
2018-03-19T16:47:14.243Z,33.27
2018-03-19T16:49:42.434Z,35.40
2018-03-19T16:52:10.583Z,41.60
2018-03-19T16:54:39.066Z,37.83
2018-03-19T16:57:07.299Z,31.10
2018-03-19T16:59:35.435Z,36.38
2018-03-19T17:02:03.649Z,36.03
2018-03-19T17:04:31.820Z,38.87
2018-03-19T17:06:59.973Z,39.33
2018-03-19T17:09:28.153Z,35.10
2018-03-19T17:11:56.309Z,40.40
2018-03-19T17:14:24.497Z,34.67
2018-03-19T17:16:52.673Z,32.73
2018-03-19T17:19:21.381Z,44.10
2018-03-19T17:21:49.585Z,34.87
2018-03-19T17:24:17.998Z,38.23
2018-03-19T17:26:46.121Z,36.97
2018-03-19T17:29:14.825Z,38.00
2018-03-19T17:31:43.677Z,29.97
2018-03-19T17:34:11.805Z,36.60
2018-03-19T17:36:39.963Z,32.17
2018-03-19T17:39:08.123Z,37.43
2018-03-19T17:41:36.302Z,38.47
2018-03-19T17:44:04.478Z,38.03
2018-03-19T17:46:32.646Z,37.10
2018-03-19T17:49:00.808Z,41.27
2018-03-19T17:51:28.987Z,34.10
2018-03-19T17:53:57.671Z,41.13
2018-03-19T17:56:25.859Z,36.03
2018-03-19T17:58:54.040Z,35.60
2018-03-19T18:01:22.479Z,36.42
2018-03-19T18:03:50.598Z,42.73
2018-03-19T18:06:18.790Z,36.57
2018-03-19T18:08:46.967Z,48.50
2018-03-19T18:11:15.119Z,45.40
2018-03-19T18:13:43.273Z,40.10
2018-03-19T18:16:11.461Z,46.80
2018-03-19T18:18:39.643Z,43.87
2018-03-19T18:21:07.912Z,43.27
2018-03-19T18:23:36.091Z,44.28
2018-03-19T18:26:04.237Z,44.17
2018-03-19T18:28:32.436Z,41.17
2018-03-19T18:31:00.592Z,49.97
2018-03-19T18:33:28.750Z,43.67
2018-03-19T18:35:56.992Z,45.67
2018-03-19T18:38:25.118Z,47.63
2018-03-19T18:40:53.259Z,46.73
2018-03-19T18:43:21.399Z,42.73
2018-03-19T18:45:49.567Z,48.17
2018-03-19T18:48:17.716Z,46.07
2018-03-19T18:50:45.852Z,50.67
2018-03-19T18:53:14.118Z,58.20
2018-03-19T18:55:43.051Z,42.53
2018-03-19T18:58:11.246Z,45.50
2018-03-19T19:00:39.436Z,50.20
2018-03-19T19:03:07.644Z,51.60
2018-03-19T19:05:35.774Z,42.90
2018-03-19T19:08:03.989Z,46.07
2018-03-19T19:10:32.152Z,47.30
2018-03-19T19:13:00.290Z,49.20
2018-03-19T19:15:28.431Z,41.87
2018-03-19T19:17:56.597Z,41.50
2018-03-19T19:20:24.740Z,44.90
2018-03-19T19:22:52.926Z,54.47
2018-03-19T19:25:21.078Z,50.10
2018-03-19T19:27:49.248Z,43.60
2018-03-19T19:30:17.762Z,43.93
2018-03-19T19:32:45.907Z,39.67
2018-03-19T19:35:14.044Z,41.90
2018-03-19T19:37:42.216Z,43.67
2018-03-19T19:40:10.375Z,44.40
2018-03-19T19:42:38.499Z,46.83
2018-03-19T19:45:06.761Z,45.30
2018-03-19T19:47:35.079Z,43.27
2018-03-19T19:50:03.392Z,43.20
2018-03-19T19:52:31.563Z,48.50
2018-03-19T19:54:59.708Z,43.60
2018-03-19T19:57:27.866Z,42.62
2018-03-19T19:59:56.021Z,41.30
2018-03-19T20:02:24.171Z,52.00
2018-03-19T20:04:52.317Z,49.43
2018-03-19T20:07:20.617Z,47.65
2018-03-19T20:09:48.780Z,49.53
2018-03-19T20:12:16.897Z,50.73
2018-03-19T20:14:45.068Z,51.43
2018-03-19T20:17:13.230Z,56.93
2018-03-19T20:19:41.403Z,53.60
2018-03-19T20:22:09.564Z,52.40
2018-03-19T20:24:37.693Z,58.63
2018-03-19T20:27:05.924Z,69.53
2018-03-19T20:29:34.090Z,57.70
2018-03-19T20:32:02.224Z,59.43
2018-03-19T20:34:30.403Z,53.80
2018-03-19T20:36:58.571Z,63.67
2018-03-19T20:39:26.714Z,57.40
2018-03-19T20:41:54.869Z,62.67
2018-03-19T20:44:23.008Z,58.37
2018-03-19T20:46:51.161Z,59.50
2018-03-19T20:49:19.312Z,59.47
2018-03-19T20:51:47.606Z,59.83
2018-03-19T20:54:15.767Z,55.00
2018-03-19T20:56:43.931Z,57.33
2018-03-19T20:59:12.081Z,64.93
2018-03-19T21:01:40.224Z,51.92
2018-03-19T21:04:08.376Z,53.17
2018-03-19T21:06:36.529Z,55.13
2018-03-19T21:09:05.577Z,57.10
2018-03-19T21:11:33.757Z,62.33
2018-03-19T21:14:01.895Z,55.97
2018-03-19T21:16:30.051Z,56.03
2018-03-19T21:18:58.179Z,49.33
2018-03-19T21:21:26.316Z,56.75
2018-03-19T21:23:54.453Z,52.38
2018-03-19T21:26:22.591Z,47.90
2018-03-19T21:28:50.741Z,74.67
2018-03-19T21:31:18.867Z,49.90
2018-03-19T21:33:47.054Z,52.93
2018-03-19T21:36:15.287Z,57.50
2018-03-19T21:38:43.646Z,61.75
2018-03-19T21:41:11.773Z,47.90
2018-03-19T21:43:39.915Z,55.93
2018-03-19T21:46:08.072Z,57.80
2018-03-19T21:48:36.207Z,61.87
2018-03-19T21:51:04.369Z,56.60
2018-03-19T21:53:32.504Z,53.70
2018-03-19T21:56:00.624Z,53.53
2018-03-19T21:58:28.788Z,60.57
2018-03-19T22:00:56.906Z,49.53
2018-03-19T22:03:25.048Z,54.78
2018-03-19T22:05:53.177Z,54.33
2018-03-19T22:08:21.345Z,57.35
2018-03-19T22:10:49.531Z,53.00
2018-03-19T22:13:17.665Z,54.75
2018-03-19T22:15:45.805Z,51.83
2018-03-19T22:18:13.952Z,52.40
2018-03-19T22:20:42.093Z,56.40
2018-03-19T22:23:10.578Z,52.40
2018-03-19T22:25:38.704Z,56.70
2018-03-19T22:28:06.846Z,58.47
2018-03-19T22:30:34.962Z,58.73
2018-03-19T22:33:03.132Z,58.78
2018-03-19T22:35:31.285Z,58.93
2018-03-19T22:37:59.413Z,52.43
2018-03-19T22:40:27.553Z,57.50
2018-03-19T22:42:55.700Z,67.30
2018-03-19T22:45:23.877Z,62.42
2018-03-19T22:47:52.004Z,58.35
2018-03-19T22:50:20.165Z,69.43
2018-03-19T22:52:48.277Z,59.20
2018-03-19T22:55:17.149Z,75.57
2018-03-19T22:57:45.345Z,70.80
2018-03-19T23:00:13.482Z,64.10
2018-03-19T23:02:41.625Z,59.65
2018-03-19T23:05:25.736Z,65.30
2018-03-19T23:07:53.884Z,65.97
2018-03-19T23:10:22.008Z,63.90
2018-03-19T23:12:50.146Z,60.23
2018-03-19T23:15:18.280Z,64.07
2018-03-19T23:17:46.518Z,65.27
2018-03-19T23:20:14.669Z,62.90
2018-03-19T23:22:42.811Z,66.80
2018-03-19T23:25:10.954Z,52.37
2018-03-19T23:27:39.067Z,65.72
2018-03-19T23:30:07.230Z,61.83
2018-03-19T23:32:35.409Z,71.40
2018-03-19T23:35:06.649Z,56.58
2018-03-19T23:37:34.788Z,68.43
2018-03-19T23:40:02.950Z,74.47
2018-03-19T23:42:31.183Z,60.30
2018-03-19T23:44:59.339Z,65.27
2018-03-19T23:47:27.507Z,63.97
2018-03-19T23:49:55.692Z,63.60
2018-03-19T23:52:23.856Z,64.57
2018-03-19T23:54:51.984Z,61.47
2018-03-19T23:57:23.531Z,60.85
2018-03-19T23:59:51.651Z,63.75
